createdAt,value
2022-11-17T00:00:21.567Z,7.64
2022-11-17T00:02:24.465Z,7.74
2022-11-17T00:04:29.925Z,7.59
2022-11-17T00:06:33.985Z,7.55
2022-11-17T00:08:36.750Z,7.69
2022-11-17T00:10:39.439Z,7.49
2022-11-17T00:12:59.679Z,7.38
2022-11-17T00:15:02.399Z,7.58
2022-11-17T00:17:07.135Z,7.59
2022-11-17T00:19:27.389Z,7.52
2022-11-17T00:21:29.936Z,7.46
2022-11-17T00:23:48.133Z,7.61
2022-11-17T00:25:51.024Z,7.49
2022-11-17T00:27:53.700Z,7.42
2022-11-17T00:29:56.931Z,7.27
2022-11-17T00:32:17.539Z,7.20
2022-11-17T00:34:21.036Z,7.12
2022-11-17T00:36:26.186Z,7.09
2022-11-17T00:38:28.842Z,7.09
2022-11-17T00:40:32.953Z,7.09
2022-11-17T00:42:35.740Z,7.23
2022-11-17T00:44:38.507Z,7.34
2022-11-17T00:46:41.703Z,7.17
2022-11-17T00:48:44.340Z,7.23
2022-11-17T00:50:47.075Z,7.19
2022-11-17T00:52:49.741Z,7.34
2022-11-17T00:54:52.425Z,7.40
2022-11-17T00:56:56.774Z,7.63
2022-11-17T00:58:59.601Z,7.65
2022-11-17T01:01:02.896Z,7.67
2022-11-17T01:03:05.673Z,7.71
2022-11-17T01:05:09.132Z,7.65
2022-11-17T01:07:11.915Z,7.58
2022-11-17T01:09:16.530Z,7.59
2022-11-17T01:11:20.363Z,7.63
2022-11-17T01:13:24.525Z,7.71
2022-11-17T01:15:27.259Z,7.66
2022-11-17T01:17:29.985Z,7.63
2022-11-17T01:19:32.696Z,7.70
2022-11-17T01:21:35.447Z,7.65
2022-11-17T01:23:39.662Z,7.72
2022-11-17T01:25:42.290Z,7.70
2022-11-17T01:27:44.988Z,7.75
2022-11-17T01:29:49.153Z,7.70
2022-11-17T01:31:52.929Z,7.73
2022-11-17T01:33:56.211Z,7.74
2022-11-17T01:36:02.859Z,7.65
2022-11-17T01:38:05.570Z,7.84
2022-11-17T01:40:11.022Z,7.66
2022-11-17T01:42:15.938Z,7.58
2022-11-17T01:44:58.572Z,7.71
2022-11-17T01:47:01.446Z,7.72
2022-11-17T01:49:12.836Z,7.75
2022-11-17T01:51:17.472Z,7.70
2022-11-17T01:53:22.463Z,7.60
2022-11-17T01:55:29.231Z,7.59
2022-11-17T01:57:34.160Z,7.66
2022-11-17T01:59:42.168Z,7.63
2022-11-17T02:01:56.802Z,7.74
2022-11-17T02:03:59.800Z,7.60
2022-11-17T02:06:07.358Z,7.69
2022-11-17T02:08:12.393Z,7.54
2022-11-17T02:10:15.085Z,7.52
2022-11-17T02:12:18.140Z,7.67
2022-11-17T02:14:20.818Z,7.69
2022-11-17T02:16:23.491Z,7.65
2022-11-17T02:18:27.773Z,7.61
2022-11-17T02:20:42.651Z,7.58
2022-11-17T02:23:17.703Z,7.49
2022-11-17T02:25:59.215Z,7.46
2022-11-17T02:28:11.930Z,7.36
2022-11-17T02:30:16.512Z,7.27
2022-11-17T02:32:22.400Z,7.32
2022-11-17T02:34:35.015Z,7.39
2022-11-17T02:36:44.261Z,7.22
2022-11-17T02:38:54.365Z,7.28
2022-11-17T02:41:09.600Z,7.36
2022-11-17T02:43:35.452Z,7.42
2022-11-17T02:45:43.181Z,7.38
2022-11-17T02:47:48.091Z,7.30
2022-11-17T02:49:56.327Z,7.28
2022-11-17T02:52:00.967Z,7.25
2022-11-17T02:54:04.017Z,7.15
2022-11-17T02:56:08.219Z,7.15
2022-11-17T02:58:13.100Z,7.13
2022-11-17T03:00:18.631Z,7.23
2022-11-17T03:02:34.873Z,7.20
2022-11-17T03:04:46.905Z,7.08
2022-11-17T03:07:01.196Z,7.09
2022-11-17T03:09:11.688Z,7.20
2022-11-17T03:11:14.857Z,7.29
2022-11-17T03:13:24.860Z,7.38
2022-11-17T03:15:35.715Z,7.42
2022-11-17T03:17:47.815Z,7.19
2022-11-17T03:19:58.955Z,6.98
2022-11-17T03:22:08.893Z,6.88
2022-11-17T03:24:18.145Z,7.48
2022-11-17T03:26:28.146Z,7.60
2022-11-17T03:28:33.731Z,7.67
2022-11-17T03:30:41.235Z,7.79
2022-11-17T03:32:50.589Z,7.78
2022-11-17T03:34:58.426Z,7.85
2022-11-17T03:37:04.604Z,8.04
2022-11-17T03:39:12.731Z,8.08
2022-11-17T03:41:18.043Z,8.17
2022-11-17T03:43:22.367Z,8.24
2022-11-17T03:45:28.941Z,8.18
2022-11-17T03:47:33.574Z,8.21
2022-11-17T03:49:41.041Z,8.14
2022-11-17T03:51:43.795Z,8.08
2022-11-17T03:53:48.245Z,8.08
2022-11-17T03:55:57.119Z,7.98
2022-11-17T03:58:05.314Z,7.89
2022-11-17T04:00:11.130Z,7.77
2022-11-17T04:02:19.174Z,7.83
2022-11-17T04:04:23.484Z,7.81
2022-11-17T04:06:26.223Z,7.93
2022-11-17T04:08:30.598Z,7.94
2022-11-17T04:10:53.289Z,7.94
2022-11-17T04:13:13.675Z,7.96
2022-11-17T04:15:34.122Z,7.97
2022-11-17T04:17:38.168Z,8.01
2022-11-17T04:19:40.806Z,8.08
2022-11-17T04:21:43.546Z,7.95
2022-11-17T04:23:46.179Z,8.02
2022-11-17T04:26:08.100Z,7.96
2022-11-17T04:28:28.584Z,8.01
2022-11-17T04:30:31.211Z,8.07
2022-11-17T04:32:33.910Z,8.06
2022-11-17T04:34:42.575Z,8.07
2022-11-17T04:36:45.250Z,8.03
2022-11-17T04:38:49.382Z,8.02
2022-11-17T04:41:06.027Z,8.03
2022-11-17T04:43:08.662Z,8.01
2022-11-17T04:45:11.390Z,8.11
2022-11-17T04:47:15.814Z,8.09
2022-11-17T04:49:20.393Z,8.11
2022-11-17T04:51:25.064Z,8.13
2022-11-17T04:53:27.718Z,8.16
2022-11-17T04:55:30.373Z,8.19
2022-11-17T04:57:33.109Z,8.18
2022-11-17T04:59:36.666Z,8.15
2022-11-17T05:01:39.827Z,8.18
2022-11-17T05:03:44.303Z,8.17
2022-11-17T05:05:47.360Z,8.12
2022-11-17T05:07:51.440Z,8.15
2022-11-17T05:09:54.086Z,8.14
2022-11-17T05:12:14.535Z,8.11
2022-11-17T05:14:19.772Z,8.17
2022-11-17T05:16:40.626Z,8.15
2022-11-17T05:18:44.683Z,8.12
2022-11-17T05:20:47.425Z,8.16
2022-11-17T05:23:08.708Z,8.15
2022-11-17T05:25:11.828Z,8.14
2022-11-17T05:27:14.532Z,8.12
2022-11-17T05:29:19.517Z,8.16
2022-11-17T05:31:22.496Z,8.16
2022-11-17T05:33:25.162Z,8.20
2022-11-17T05:35:27.862Z,8.31
2022-11-17T05:37:30.681Z,8.29
2022-11-17T05:39:34.718Z,8.30
2022-11-17T05:41:38.215Z,8.33
2022-11-17T05:43:41.127Z,8.35
2022-11-17T05:45:45.818Z,8.36
2022-11-17T05:47:48.619Z,8.32
2022-11-17T05:49:51.364Z,8.41
2022-11-17T05:51:56.734Z,8.65
2022-11-17T05:53:59.562Z,8.70
2022-11-17T05:56:15.688Z,8.63
2022-11-17T05:58:23.504Z,8.63
2022-11-17T06:00:26.357Z,8.27
2022-11-17T06:02:34.785Z,8.43
2022-11-17T06:04:37.891Z,8.27
2022-11-17T06:06:40.695Z,8.34
2022-11-17T06:08:43.602Z,8.55
2022-11-17T06:10:46.472Z,8.46
2022-11-17T06:12:50.546Z,8.21
2022-11-17T06:14:53.337Z,8.34
2022-11-17T06:17:01.667Z,8.27
2022-11-17T06:19:07.898Z,8.29
2022-11-17T06:21:13.956Z,8.23
2022-11-17T06:23:19.473Z,8.33
2022-11-17T06:25:22.289Z,8.32
2022-11-17T06:27:26.645Z,8.51
2022-11-17T06:29:31.476Z,8.37
2022-11-17T06:31:34.201Z,8.31
2022-11-17T06:33:38.659Z,8.35
2022-11-17T06:35:43.432Z,8.42
2022-11-17T06:37:46.180Z,8.49
2022-11-17T06:39:48.899Z,8.51
2022-11-17T06:41:51.546Z,8.49
2022-11-17T06:43:54.207Z,8.47
2022-11-17T06:45:58.410Z,8.57
2022-11-17T06:48:01.483Z,8.70
2022-11-17T06:50:04.340Z,8.72
2022-11-17T06:52:07.009Z,8.74
2022-11-17T06:54:10.503Z,8.85
2022-11-17T06:56:13.644Z,8.86
2022-11-17T06:58:16.327Z,8.92
2022-11-17T07:00:20.078Z,9.02
2022-11-17T07:02:24.259Z,8.97
2022-11-17T07:04:27.059Z,8.87
2022-11-17T07:06:29.900Z,8.87
2022-11-17T07:08:34.190Z,9.08
2022-11-17T07:10:38.008Z,9.16
2022-11-17T07:12:40.792Z,8.93
2022-11-17T07:14:43.600Z,8.95
2022-11-17T07:16:46.471Z,8.94
2022-11-17T07:18:50.631Z,9.06
2022-11-17T07:20:53.659Z,9.15
2022-11-17T07:23:00.012Z,9.24
2022-11-17T07:25:02.856Z,9.12
2022-11-17T07:27:06.528Z,9.14
2022-11-17T07:29:09.290Z,9.13
2022-11-17T07:31:12.030Z,9.22
2022-11-17T07:33:15.428Z,9.34
2022-11-17T07:35:19.687Z,9.30
2022-11-17T07:37:22.390Z,9.28
2022-11-17T07:39:25.132Z,9.24
2022-11-17T07:41:27.957Z,9.27
2022-11-17T07:43:31.377Z,9.28
2022-11-17T07:45:34.125Z,9.35
2022-11-17T07:47:36.947Z,9.32
2022-11-17T07:49:39.653Z,9.31
2022-11-17T07:51:43.711Z,9.38
2022-11-17T07:53:46.469Z,9.46
2022-11-17T07:55:49.255Z,9.49
2022-11-17T07:57:56.119Z,9.47
2022-11-17T07:59:58.852Z,9.53
2022-11-17T08:02:01.647Z,9.69
2022-11-17T08:04:04.662Z,9.77
2022-11-17T08:06:09.369Z,9.78
2022-11-17T08:08:14.197Z,9.83
2022-11-17T08:10:17.214Z,9.89
2022-11-17T08:12:20.054Z,9.90
2022-11-17T08:14:22.844Z,9.99
2022-11-17T08:16:30.656Z,10.04
2022-11-17T08:18:34.281Z,10.07
2022-11-17T08:20:37.590Z,10.17
2022-11-17T08:22:40.381Z,10.29
2022-11-17T08:24:44.555Z,10.30
2022-11-17T08:26:47.421Z,10.37
2022-11-17T08:28:56.710Z,10.38
2022-11-17T08:31:02.209Z,10.38
2022-11-17T08:33:05.033Z,10.35
2022-11-17T08:35:08.200Z,10.32
2022-11-17T08:37:11.010Z,10.32
2022-11-17T08:39:13.842Z,10.31
2022-11-17T08:41:18.881Z,10.35
2022-11-17T08:43:21.678Z,10.48
2022-11-17T08:45:24.398Z,10.53
2022-11-17T08:47:27.359Z,10.65
2022-11-17T08:49:30.099Z,10.55
2022-11-17T08:51:33.237Z,10.60
2022-11-17T08:53:36.514Z,10.67
2022-11-17T08:55:41.296Z,10.71
2022-11-17T08:57:46.007Z,10.71
2022-11-17T08:59:49.138Z,10.73
2022-11-17T09:01:51.866Z,10.79
2022-11-17T09:03:54.626Z,10.80
2022-11-17T09:05:57.361Z,10.75
2022-11-17T09:08:22.337Z,10.82
2022-11-17T09:10:23.105Z,10.88
2022-11-17T09:12:25.874Z,10.98
2022-11-17T09:14:31.483Z,10.98
2022-11-17T09:16:34.320Z,11.01
2022-11-17T09:18:38.414Z,11.14
2022-11-17T09:20:45.427Z,11.11
2022-11-17T09:22:48.831Z,11.14
2022-11-17T09:24:51.468Z,11.10
2022-11-17T09:26:54.946Z,11.13
2022-11-17T09:29:01.431Z,11.11
2022-11-17T09:31:09.671Z,11.18
2022-11-17T09:33:12.461Z,11.11
2022-11-17T09:35:15.357Z,11.14
2022-11-17T09:37:18.370Z,11.20
2022-11-17T09:39:21.382Z,11.43
2022-11-17T09:41:27.962Z,11.79
2022-11-17T09:43:37.269Z,11.84
2022-11-17T09:45:40.910Z,11.84
2022-11-17T09:47:49.736Z,11.67
2022-11-17T09:49:59.404Z,11.64
2022-11-17T09:52:10.506Z,11.63
2022-11-17T09:54:21.585Z,11.49
2022-11-17T09:56:28.224Z,11.44
2022-11-17T09:58:34.165Z,11.45
2022-11-17T10:00:39.896Z,11.41
2022-11-17T10:02:43.261Z,11.41
2022-11-17T10:04:48.387Z,11.39
2022-11-17T10:06:51.607Z,11.26
2022-11-17T10:09:01.146Z,11.39
2022-11-17T10:11:23.960Z,11.43
2022-11-17T10:13:32.129Z,11.68
2022-11-17T10:15:43.608Z,11.63
2022-11-17T10:17:46.380Z,11.71
2022-11-17T10:19:50.487Z,11.79
2022-11-17T10:21:56.294Z,11.60
2022-11-17T10:24:00.680Z,11.92
2022-11-17T10:26:09.306Z,12.03
2022-11-17T10:28:25.901Z,11.85
2022-11-17T10:30:28.596Z,12.08
2022-11-17T10:32:36.667Z,12.24
2022-11-17T10:34:41.597Z,12.29
2022-11-17T10:36:49.542Z,12.25
2022-11-17T10:38:54.675Z,12.36
2022-11-17T10:41:00.692Z,12.40
2022-11-17T10:43:19.410Z,12.17
2022-11-17T10:45:22.410Z,12.32
2022-11-17T10:47:28.387Z,12.30
2022-11-17T10:49:34.812Z,12.34
2022-11-17T10:51:37.591Z,12.34
2022-11-17T10:53:46.481Z,12.03
2022-11-17T10:55:55.847Z,12.11
2022-11-17T10:58:02.036Z,12.11
2022-11-17T11:00:05.393Z,11.82
2022-11-17T11:02:28.550Z,12.18
2022-11-17T11:04:34.130Z,11.94
2022-11-17T11:06:36.968Z,12.06
2022-11-17T11:08:55.094Z,12.18
2022-11-17T11:11:00.611Z,12.11
2022-11-17T11:13:13.676Z,12.12
2022-11-17T11:15:19.994Z,12.32
2022-11-17T11:17:22.810Z,12.48
2022-11-17T11:19:26.053Z,12.21
2022-11-17T11:21:46.264Z,12.28
2022-11-17T11:24:00.280Z,12.53
2022-11-17T11:26:14.681Z,12.84
2022-11-17T11:28:34.337Z,12.54
2022-11-17T11:30:43.249Z,12.36
2022-11-17T11:33:01.606Z,12.25
2022-11-17T11:35:34.825Z,12.05
2022-11-17T11:37:44.985Z,12.26
2022-11-17T11:39:57.421Z,12.06
2022-11-17T11:42:16.016Z,12.05
2022-11-17T11:44:41.774Z,11.94
2022-11-17T11:46:53.721Z,12.04
2022-11-17T11:49:03.923Z,12.03
2022-11-17T11:51:15.295Z,12.10
2022-11-17T11:53:24.725Z,11.98
2022-11-17T11:55:32.264Z,11.99
2022-11-17T11:57:37.470Z,12.11
2022-11-17T11:59:48.205Z,12.10
2022-11-17T12:02:03.100Z,12.26
2022-11-17T12:04:16.034Z,12.31
2022-11-17T12:06:41.557Z,12.43
2022-11-17T12:08:52.802Z,12.60
2022-11-17T12:11:21.787Z,12.76
2022-11-17T12:13:25.717Z,12.78
2022-11-17T12:15:36.681Z,12.82
2022-11-17T12:17:56.914Z,12.92
2022-11-17T12:20:07.481Z,12.99
2022-11-17T12:22:10.785Z,13.06
2022-11-17T12:24:19.075Z,13.18
2022-11-17T12:26:26.536Z,13.16
2022-11-17T12:28:32.836Z,13.29
2022-11-17T12:30:58.960Z,13.24
2022-11-17T12:33:03.976Z,13.36
2022-11-17T12:35:28.986Z,13.33
2022-11-17T12:37:31.716Z,13.67
2022-11-17T12:40:00.417Z,13.92
2022-11-17T12:42:08.695Z,13.56
2022-11-17T12:44:44.590Z,12.93
2022-11-17T12:46:48.173Z,13.27
2022-11-17T12:48:59.422Z,13.33
2022-11-17T12:51:08.533Z,13.89
2022-11-17T12:53:25.752Z,13.80
2022-11-17T12:55:43.611Z,14.01
2022-11-17T12:57:54.317Z,13.61
2022-11-17T13:00:10.731Z,13.89
2022-11-17T13:02:31.064Z,13.89
2022-11-17T13:04:43.846Z,13.81
2022-11-17T13:07:01.713Z,13.48
2022-11-17T13:09:07.323Z,13.79
2022-11-17T13:11:17.624Z,13.65
2022-11-17T13:13:23.992Z,13.32
2022-11-17T13:15:27.176Z,13.21
2022-11-17T13:17:32.803Z,13.28
2022-11-17T13:19:38.286Z,13.71
2022-11-17T13:21:40.997Z,13.17
2022-11-17T13:23:45.476Z,12.99
2022-11-17T13:25:48.208Z,13.25
2022-11-17T13:27:57.105Z,13.32
2022-11-17T13:30:24.237Z,12.96
2022-11-17T13:32:28.678Z,12.70
2022-11-17T13:34:31.746Z,12.63
2022-11-17T13:36:35.250Z,12.47
2022-11-17T13:38:37.998Z,12.44
2022-11-17T13:40:43.347Z,12.51
2022-11-17T13:42:46.690Z,12.46
2022-11-17T13:44:49.976Z,12.46
2022-11-17T13:46:55.308Z,12.49
2022-11-17T13:48:58.105Z,12.53
2022-11-17T13:51:32.876Z,12.54
2022-11-17T13:53:35.701Z,12.53
2022-11-17T13:55:44.211Z,12.56
2022-11-17T13:57:56.311Z,12.75
2022-11-17T14:00:01.147Z,12.82
2022-11-17T14:02:26.919Z,12.77
2022-11-17T14:04:29.965Z,12.87
2022-11-17T14:06:53.976Z,12.73
2022-11-17T14:09:05.392Z,12.65
2022-11-17T14:11:21.493Z,12.60
2022-11-17T14:13:30.509Z,12.59
2022-11-17T14:15:36.261Z,12.63
2022-11-17T14:17:40.342Z,12.57
2022-11-17T14:19:43.045Z,12.48
2022-11-17T14:21:59.349Z,12.51
2022-11-17T14:24:08.286Z,12.44
2022-11-17T14:26:22.626Z,12.32
2022-11-17T14:28:25.554Z,12.33
2022-11-17T14:30:28.585Z,12.35
2022-11-17T14:32:32.268Z,12.32
2022-11-17T14:34:36.334Z,12.27
2022-11-17T14:36:40.329Z,12.29
2022-11-17T14:38:44.664Z,12.32
2022-11-17T14:40:47.537Z,12.19
2022-11-17T14:42:50.214Z,12.15
2022-11-17T14:44:52.930Z,12.09
2022-11-17T14:46:55.624Z,12.09
2022-11-17T14:48:58.425Z,12.13
2022-11-17T14:51:02.476Z,12.04
2022-11-17T14:53:05.255Z,12.06
2022-11-17T14:55:08.842Z,12.05
2022-11-17T14:57:11.518Z,12.02
2022-11-17T14:59:14.657Z,11.94
2022-11-17T15:01:19.225Z,11.93
2022-11-17T15:03:21.992Z,11.91
2022-11-17T15:05:24.798Z,11.93
2022-11-17T15:07:29.531Z,11.92
2022-11-17T15:09:32.604Z,11.79
2022-11-17T15:11:39.381Z,11.84
2022-11-17T15:13:42.415Z,11.79
2022-11-17T15:15:45.517Z,11.86
2022-11-17T15:17:48.313Z,11.79
2022-11-17T15:19:51.181Z,11.78
2022-11-17T15:21:53.922Z,11.73
2022-11-17T15:23:58.008Z,11.80
2022-11-17T15:26:04.134Z,11.70
2022-11-17T15:28:06.853Z,11.67
2022-11-17T15:30:10.134Z,11.62
2022-11-17T15:32:12.919Z,11.64
2022-11-17T15:34:20.162Z,11.66
2022-11-17T15:36:23.899Z,11.52
2022-11-17T15:38:26.676Z,11.45
2022-11-17T15:40:30.836Z,11.43
2022-11-17T15:42:33.537Z,11.41
2022-11-17T15:44:36.253Z,11.35
2022-11-17T15:46:44.307Z,11.40
2022-11-17T15:48:52.376Z,11.38
2022-11-17T15:50:57.806Z,11.28
2022-11-17T15:53:04.967Z,11.27
2022-11-17T15:55:08.606Z,11.38
2022-11-17T15:57:12.814Z,11.27
2022-11-17T15:59:16.312Z,11.16
2022-11-17T16:01:28.545Z,11.14
2022-11-17T16:03:31.235Z,11.24
2022-11-17T16:05:33.925Z,11.19
2022-11-17T16:07:36.847Z,11.23
2022-11-17T16:09:40.102Z,11.26
2022-11-17T16:11:42.916Z,11.23
2022-11-17T16:13:47.277Z,11.27
2022-11-17T16:15:50.732Z,11.23
2022-11-17T16:17:53.473Z,11.23
2022-11-17T16:19:56.169Z,10.95
2022-11-17T16:21:58.936Z,10.82
2022-11-17T16:24:02.160Z,10.82
2022-11-17T16:26:05.191Z,11.01
2022-11-17T16:28:08.475Z,10.89
2022-11-17T16:30:14.784Z,10.91
2022-11-17T16:32:17.647Z,10.68
2022-11-17T16:34:21.883Z,10.78
2022-11-17T16:36:31.256Z,10.62
2022-11-17T16:38:39.618Z,10.53
2022-11-17T16:40:48.821Z,10.21
2022-11-17T16:42:51.520Z,10.19
2022-11-17T16:44:54.346Z,10.31
2022-11-17T16:46:58.517Z,10.41
2022-11-17T16:49:03.178Z,10.51
2022-11-17T16:51:08.623Z,10.50
2022-11-17T16:53:11.364Z,10.38
2022-11-17T16:55:14.175Z,10.51
2022-11-17T16:57:16.985Z,10.61
2022-11-17T16:59:19.928Z,10.60
2022-11-17T17:01:25.989Z,10.60
2022-11-17T17:03:30.159Z,10.66
2022-11-17T17:05:34.545Z,10.70
2022-11-17T17:07:37.315Z,10.62
2022-11-17T17:09:40.066Z,10.82
2022-11-17T17:11:43.166Z,10.77
2022-11-17T17:13:45.893Z,10.85
2022-11-17T17:15:48.636Z,10.92
2022-11-17T17:17:51.383Z,11.06
2022-11-17T17:19:55.657Z,10.93
2022-11-17T17:21:58.427Z,10.92
2022-11-17T17:24:01.549Z,10.86
2022-11-17T17:26:06.159Z,10.77
2022-11-17T17:28:08.913Z,10.66
2022-11-17T17:30:12.822Z,10.79
2022-11-17T17:32:15.568Z,10.70
2022-11-17T17:34:18.369Z,10.74
2022-11-17T17:36:24.445Z,10.73
2022-11-17T17:38:28.567Z,10.70
2022-11-17T17:40:31.618Z,10.71
2022-11-17T17:42:34.322Z,10.74
2022-11-17T17:44:37.037Z,10.72
2022-11-17T17:46:39.826Z,10.73
2022-11-17T17:48:44.092Z,10.80
2022-11-17T17:50:46.850Z,10.74
2022-11-17T17:52:50.974Z,10.75
2022-11-17T17:54:53.681Z,10.74
2022-11-17T17:56:57.672Z,10.82
2022-11-17T17:59:00.637Z,10.84
2022-11-17T18:01:09.799Z,10.92
2022-11-17T18:03:12.561Z,10.85
2022-11-17T18:05:16.149Z,10.88
2022-11-17T18:07:18.953Z,10.92
2022-11-17T18:09:23.119Z,10.90
2022-11-17T18:11:26.637Z,10.87
2022-11-17T18:13:31.691Z,10.88
2022-11-17T18:15:34.432Z,10.90
2022-11-17T18:17:37.221Z,11.00
2022-11-17T18:19:39.957Z,10.91
2022-11-17T18:21:42.719Z,10.88
2022-11-17T18:23:45.693Z,10.93
2022-11-17T18:25:49.745Z,10.93
2022-11-17T18:27:52.606Z,11.02
2022-11-17T18:29:55.325Z,11.01
2022-11-17T18:31:58.004Z,11.03
2022-11-17T18:34:02.609Z,11.00
2022-11-17T18:36:06.930Z,10.96
2022-11-17T18:38:09.614Z,11.01
2022-11-17T18:40:13.274Z,10.94
2022-11-17T18:42:17.370Z,11.07
2022-11-17T18:44:20.425Z,11.07
2022-11-17T18:46:24.335Z,11.04
2022-11-17T18:48:27.148Z,11.08
2022-11-17T18:50:29.881Z,11.11
2022-11-17T18:52:32.807Z,11.08
2022-11-17T18:54:35.510Z,11.15
2022-11-17T18:56:38.828Z,11.11
2022-11-17T18:58:44.193Z,11.08
2022-11-17T19:00:46.936Z,11.05
2022-11-17T19:02:49.754Z,11.03
2022-11-17T19:04:52.444Z,11.16
2022-11-17T19:06:55.248Z,11.03
2022-11-17T19:08:59.579Z,11.01
2022-11-17T19:11:06.087Z,11.01
2022-11-17T19:13:09.135Z,10.90
2022-11-17T19:15:13.302Z,11.01
2022-11-17T19:17:16.081Z,10.99
2022-11-17T19:19:19.192Z,10.80
2022-11-17T19:21:25.714Z,10.79
2022-11-17T19:23:28.632Z,10.68
2022-11-17T19:25:31.480Z,10.67
2022-11-17T19:27:34.372Z,10.66
2022-11-17T19:29:38.764Z,10.63
2022-11-17T19:31:42.856Z,10.73
2022-11-17T19:33:46.659Z,10.82
2022-11-17T19:35:49.384Z,10.80
2022-11-17T19:37:52.320Z,10.73
2022-11-17T19:39:55.009Z,10.67
2022-11-17T19:41:57.743Z,10.76
2022-11-17T19:44:03.895Z,10.78
2022-11-17T19:46:08.960Z,10.72
2022-11-17T19:48:13.083Z,10.71
2022-11-17T19:50:15.814Z,10.59
2022-11-17T19:52:18.654Z,10.49
2022-11-17T19:54:21.633Z,10.34
2022-11-17T19:56:25.815Z,10.23
2022-11-17T19:58:28.538Z,10.05
2022-11-17T20:00:31.286Z,9.91
2022-11-17T20:02:34.043Z,9.99
2022-11-17T20:04:38.200Z,9.84
2022-11-17T20:06:41.186Z,9.60
2022-11-17T20:08:44.497Z,9.35
2022-11-17T20:10:47.230Z,9.21
2022-11-17T20:12:49.990Z,9.10
2022-11-17T20:14:52.704Z,9.07
2022-11-17T20:16:55.391Z,8.96
2022-11-17T20:19:00.124Z,8.75
2022-11-17T20:21:06.712Z,8.72
2022-11-17T20:23:10.029Z,8.74
2022-11-17T20:25:12.886Z,8.68
2022-11-17T20:27:15.577Z,8.75
2022-11-17T20:29:18.678Z,8.72
2022-11-17T20:31:24.270Z,8.52
2022-11-17T20:33:27.049Z,8.44
2022-11-17T20:35:29.776Z,8.65
2022-11-17T20:37:34.027Z,8.30
2022-11-17T20:39:36.751Z,8.31
2022-11-17T20:41:39.512Z,8.39
2022-11-17T20:43:42.238Z,8.24
2022-11-17T20:45:44.977Z,8.27
2022-11-17T20:47:47.726Z,8.25
2022-11-17T20:49:50.682Z,8.20
2022-11-17T20:51:53.445Z,8.24
2022-11-17T20:53:57.598Z,8.18
2022-11-17T20:56:02.298Z,8.12
2022-11-17T20:58:05.083Z,8.16
2022-11-17T21:00:09.202Z,8.28
2022-11-17T21:02:12.159Z,8.36
2022-11-17T21:04:15.180Z,8.33
2022-11-17T21:06:19.589Z,8.23
2022-11-17T21:08:22.426Z,8.36
2022-11-17T21:10:26.564Z,8.41
2022-11-17T21:12:29.678Z,8.24
2022-11-17T21:14:32.437Z,8.20
2022-11-17T21:16:37.560Z,8.21
2022-11-17T21:18:46.875Z,8.20
2022-11-17T21:20:49.575Z,8.13
2022-11-17T21:22:52.336Z,8.15
2022-11-17T21:24:55.035Z,8.14
2022-11-17T21:26:59.146Z,7.99
2022-11-17T21:29:06.441Z,7.83
2022-11-17T21:31:12.582Z,7.87
2022-11-17T21:33:15.385Z,7.71
2022-11-17T21:35:18.337Z,7.71
2022-11-17T21:37:21.121Z,7.63
2022-11-17T21:39:24.592Z,7.69
2022-11-17T21:41:28.930Z,7.59
2022-11-17T21:43:33.156Z,7.57
2022-11-17T21:45:35.881Z,7.59
2022-11-17T21:47:38.504Z,7.56
2022-11-17T21:49:41.265Z,7.63
2022-11-17T21:51:45.391Z,7.65
2022-11-17T21:53:48.765Z,7.59
2022-11-17T21:55:51.432Z,7.60
2022-11-17T21:57:54.197Z,7.56
2022-11-17T21:59:58.331Z,7.56
2022-11-17T22:02:01.004Z,7.56
2022-11-17T22:04:05.016Z,7.59
2022-11-17T22:06:09.898Z,7.63
2022-11-17T22:08:12.631Z,7.68
2022-11-17T22:10:15.323Z,7.67
2022-11-17T22:12:18.100Z,7.52
2022-11-17T22:14:21.492Z,7.52
2022-11-17T22:16:25.624Z,7.43
2022-11-17T22:18:28.357Z,7.40
2022-11-17T22:20:31.083Z,7.56
2022-11-17T22:22:33.732Z,7.43
2022-11-17T22:24:39.489Z,7.42
2022-11-17T22:26:44.307Z,7.34
2022-11-17T22:28:51.015Z,7.41
2022-11-17T22:30:54.004Z,7.43
2022-11-17T22:32:58.131Z,7.37
2022-11-17T22:35:01.686Z,7.41
2022-11-17T22:37:04.398Z,7.36
2022-11-17T22:39:07.683Z,7.35
2022-11-17T22:41:12.837Z,7.41
2022-11-17T22:43:15.811Z,7.35
2022-11-17T22:45:18.592Z,7.33
2022-11-17T22:47:21.305Z,7.36
2022-11-17T22:49:25.335Z,7.33
2022-11-17T22:51:45.479Z,7.41
2022-11-17T22:53:48.148Z,7.35
2022-11-17T22:55:50.899Z,7.38
2022-11-17T22:57:53.615Z,7.29
2022-11-17T22:59:56.516Z,7.30
2022-11-17T23:01:59.232Z,7.27
2022-11-17T23:04:01.948Z,7.37
2022-11-17T23:06:06.697Z,7.28
2022-11-17T23:08:10.068Z,7.16
2022-11-17T23:10:13.451Z,7.12
2022-11-17T23:12:16.208Z,7.08
2022-11-17T23:14:18.938Z,7.06
2022-11-17T23:16:22.192Z,7.04
2022-11-17T23:18:25.913Z,7.09
2022-11-17T23:20:28.603Z,7.12
2022-11-17T23:22:33.999Z,7.09
2022-11-17T23:24:36.737Z,7.08
2022-11-17T23:26:39.556Z,7.12
2022-11-17T23:28:43.598Z,7.09
2022-11-17T23:30:46.349Z,7.09
2022-11-17T23:32:49.161Z,7.12
2022-11-17T23:34:51.920Z,7.08
2022-11-17T23:36:57.341Z,7.16
2022-11-17T23:39:05.333Z,7.04
2022-11-17T23:41:10.176Z,7.14
2022-11-17T23:43:12.952Z,7.14
2022-11-17T23:45:15.848Z,7.08
2022-11-17T23:47:18.583Z,7.08
2022-11-17T23:49:21.308Z,7.08
2022-11-17T23:51:25.917Z,7.12
2022-11-17T23:53:28.652Z,7.08
2022-11-17T23:55:32.845Z,7.12
2022-11-17T23:57:35.588Z,7.12
2022-11-17T23:59:38.323Z,7.13
